TimeCDT,TemperatureF,Dew PointF,Humidity,Sea Level PressureIn,VisibilityMPH,Wind Direction,Wind SpeedMPH,Gust SpeedMPH,PrecipitationIn,Events,Conditions,WindDirDegrees,DateUTC
12:54 AM,71.1,66.9,87,29.91,10.0,SSE,4.6,-,N/A,,Clear,160,2013-10-04 05:54:00
1:54 AM,66.9,64.9,93,29.94,9.0,Calm,Calm,-,N/A,,Clear,0,2013-10-04 06:54:00
2:54 AM,66.9,64.9,93,29.93,7.0,ENE,3.5,-,N/A,,Clear,70,2013-10-04 07:54:00
3:54 AM,64.9,64.0,97,29.93,7.0,Calm,Calm,-,N/A,,Clear,0,2013-10-04 08:54:00
4:54 AM,66.0,64.9,96,29.93,3.0,ENE,4.6,-,N/A,,Clear,70,2013-10-04 09:54:00
5:54 AM,64.9,64.0,97,29.95,3.0,East,5.8,-,N/A,,Clear,90,2013-10-04 10:54:00
6:02 AM,64.4,64.4,100,29.96,2.5,East,5.8,-,N/A,,Clear,90,2013-10-04 11:02:00
6:54 AM,66.0,64.9,96,29.95,3.0,East,5.8,-,N/A,,Clear,100,2013-10-04 11:54:00
7:06 AM,66.2,64.4,94,29.97,2.0,East,5.8,-,N/A,,Clear,100,2013-10-04 12:06:00
7:54 AM,68.0,66.0,93,29.96,3.0,Calm,Calm,-,N/A,,Clear,0,2013-10-04 12:54:00
8:04 AM,69.8,66.2,88,29.97,4.0,Calm,Calm,-,N/A,,Partly Cloudy,0,2013-10-04 13:04:00
8:54 AM,73.9,69.1,85,29.96,9.0,SSW,10.4,-,N/A,,Clear,200,2013-10-04 13:54:00
9:54 AM,78.1,68.0,71,29.96,10.0,SW,11.5,-,N/A,,Clear,220,2013-10-04 14:54:00
10:54 AM,82.0,68.0,62,29.94,10.0,SSW,12.7,20.7,N/A,,Clear,200,2013-10-04 15:54:00
11:54 AM,84.9,68.0,57,29.93,10.0,South,11.5,-,N/A,,Partly Cloudy,180,2013-10-04 16:54:00
12:54 PM,87.1,66.9,51,29.92,10.0,South,10.4,-,N/A,,Clear,190,2013-10-04 17:54:00
1:54 PM,89.1,64.9,45,29.89,10.0,SSW,13.8,21.9,N/A,,Clear,200,2013-10-04 18:54:00
2:54 PM,87.1,64.9,48,29.88,10.0,South,11.5,23.0,N/A,,Scattered Clouds,170,2013-10-04 19:54:00
3:54 PM,88.0,64.0,45,29.87,10.0,South,13.8,-,N/A,,Scattered Clouds,180,2013-10-04 20:54:00
4:54 PM,84.9,64.9,51,29.88,10.0,South,17.3,-,N/A,,Partly Cloudy,180,2013-10-04 21:54:00
5:54 PM,84.0,66.0,55,29.88,10.0,South,15.0,-,N/A,,Clear,190,2013-10-04 22:54:00
6:54 PM,79.0,66.9,66,29.90,10.0,South,6.9,-,N/A,,Clear,170,2013-10-04 23:54:00
7:54 PM,78.1,66.9,68,29.90,10.0,SSE,8.1,-,N/A,,Clear,160,2013-10-05 00:54:00
8:54 PM,78.1,66.9,68,29.92,10.0,South,10.4,-,N/A,,Clear,170,2013-10-05 01:54:00
9:54 PM,77.0,68.0,74,29.92,10.0,South,9.2,-,N/A,,Clear,170,2013-10-05 02:54:00
10:54 PM,75.9,69.1,79,29.92,10.0,South,10.4,-,N/A,,Clear,180,2013-10-05 03:54:00
11:54 PM,75.9,69.1,79,29.92,10.0,South,10.4,-,N/A,,Clear,190,2013-10-05 04:54:00